Time;durP1;ratioP1;P1;durP2;ratioP2;P2;SDS_P1;SDS_P2;PMS_P1;PMS_P2;Temp;Humidity;BMP_temperature;BMP_pressure;BME280_temperature;BME280_humidity;BME280_pressure;Samples;Min_cycle;Max_cycle;Signal;HPM_P1;HPM_P2
2021/08/21 00:00:13;;;;;;;7.43;6.63;;;;;;;;;;754438;184;919195;-71
2021/08/21 00:02:39;;;;;;;8.10;6.00;;;;;;;;;;762696;184;620569;-71
2021/08/21 00:05:05;;;;;;;6.70;5.18;;;;;;;;;;755204;183;918264;-71
2021/08/21 00:07:30;;;;;;;10.37;6.77;;;;;;;;;;753129;184;918723;-71
2021/08/21 00:09:56;;;;;;;16.00;6.23;;;;;;;;;;752811;184;917528;-71
2021/08/21 00:12:22;;;;;;;7.80;5.03;;;;;;;;;;759125;184;919629;-71
2021/08/21 00:14:48;;;;;;;7.60;5.17;;;;;;;;;;754198;184;918384;-71
2021/08/21 00:17:14;;;;;;;8.93;5.65;;;;;;;;;;754611;181;918810;-71
2021/08/21 00:19:40;;;;;;;6.80;5.13;;;;;;;;;;759249;184;919512;-71
2021/08/21 00:22:06;;;;;;;8.73;5.87;;;;;;;;;;754415;182;919054;-71
2021/08/21 00:24:31;;;;;;;8.15;6.18;;;;;;;;;;754184;184;921204;-71
2021/08/21 00:26:57;;;;;;;6.53;5.30;;;;;;;;;;758141;184;920005;-72
2021/08/21 00:29:23;;;;;;;7.47;4.90;;;;;;;;;;753237;184;918136;-72
2021/08/21 00:31:49;;;;;;;9.05;5.55;;;;;;;;;;753768;182;919288;-72
2021/08/21 00:34:15;;;;;;;9.33;5.50;;;;;;;;;;756856;183;917671;-71
2021/08/21 00:36:40;;;;;;;17.60;6.10;;;;;;;;;;755499;183;918542;-72
2021/08/21 00:39:06;;;;;;;9.87;6.07;;;;;;;;;;755277;183;919118;-71
2021/08/21 00:41:33;;;;;;;13.27;5.73;;;;;;;;;;744088;183;918811;-72
2021/08/21 00:43:59;;;;;;;8.67;5.40;;;;;;;;;;756281;183;692306;-73
2021/08/21 00:46:25;;;;;;;10.50;5.90;;;;;;;;;;756801;184;953938;-71
2021/08/21 00:48:50;;;;;;;8.13;5.93;;;;;;;;;;756818;183;919061;-71
2021/08/21 00:51:16;;;;;;;10.23;6.13;;;;;;;;;;760083;183;918930;-71
2021/08/21 00:53:42;;;;;;;8.30;6.20;;;;;;;;;;753434;182;918830;-71
2021/08/21 00:56:08;;;;;;;12.30;6.30;;;;;;;;;;753547;183;918746;-71
2021/08/21 00:58:34;;;;;;;10.27;6.47;;;;;;;;;;754338;181;918581;-71
2021/08/21 01:01:00;;;;;;;11.33;5.53;;;;;;;;;;756133;182;914897;-71
2021/08/21 01:03:25;;;;;;;11.75;6.25;;;;;;;;;;753464;183;921559;-70
2021/08/21 01:05:51;;;;;;;9.27;5.60;;;;;;;;;;754349;183;919359;-70
2021/08/21 01:08:17;;;;;;;14.43;6.00;;;;;;;;;;758991;183;918915;-70
2021/08/21 01:10:43;;;;;;;10.37;6.87;;;;;;;;;;755028;184;918537;-70
2021/08/21 01:13:09;;;;;;;9.93;6.33;;;;;;;;;;754204;184;925022;-71
2021/08/21 01:15:35;;;;;;;8.53;5.60;;;;;;;;;;758201;184;917726;-71
2021/08/21 01:18:01;;;;;;;14.83;4.67;;;;;;;;;;749610;184;1788872;-70
2021/08/21 01:20:26;;;;;;;6.57;4.67;;;;;;;;;;754977;184;919048;-70
2021/08/21 01:22:52;;;;;;;12.10;5.00;;;;;;;;;;759170;184;1157668;-70
2021/08/21 01:25:19;;;;;;;8.93;4.67;;;;;;;;;;753404;185;919450;-70
2021/08/21 01:27:45;;;;;;;10.20;4.60;;;;;;;;;;755179;184;919529;-70
2021/08/21 01:30:10;;;;;;;8.87;4.97;;;;;;;;;;752886;182;918952;-70
2021/08/21 01:32:36;;;;;;;11.00;4.90;;;;;;;;;;759439;184;918748;-70
2021/08/21 01:35:02;;;;;;;9.73;4.80;;;;;;;;;;756931;184;919185;-70
2021/08/21 01:37:28;;;;;;;8.53;5.40;;;;;;;;;;753797;182;918814;-70
2021/08/21 01:39:54;;;;;;;9.03;5.13;;;;;;;;;;759035;184;918847;-70
2021/08/21 01:42:20;;;;;;;6.67;4.30;;;;;;;;;;755063;184;918916;-70
2021/08/21 01:44:45;;;;;;;13.62;5.40;;;;;;;;;;757646;183;918616;-70
2021/08/21 01:47:11;;;;;;;8.40;4.73;;;;;;;;;;759893;183;917967;-71
2021/08/21 01:49:38;;;;;;;7.60;4.20;;;;;;;;;;755167;182;918798;-70
2021/08/21 01:52:04;;;;;;;6.80;4.60;;;;;;;;;;754743;183;919134;-70
2021/08/21 01:54:30;;;;;;;6.50;4.60;;;;;;;;;;756224;181;918801;-70
2021/08/21 01:56:55;;;;;;;21.87;5.83;;;;;;;;;;760807;183;918778;-69
2021/08/21 01:59:22;;;;;;;8.40;4.60;;;;;;;;;;756153;182;924937;-70
2021/08/21 02:01:48;;;;;;;7.40;4.97;;;;;;;;;;754873;183;917758;-69
2021/08/21 02:04:14;;;;;;;7.50;4.43;;;;;;;;;;761795;183;919482;-70
2021/08/21 02:06:40;;;;;;;7.60;4.47;;;;;;;;;;755282;183;917830;-70
2021/08/21 02:09:05;;;;;;;8.10;5.40;;;;;;;;;;755022;183;915941;-69
2021/08/21 02:11:31;;;;;;;6.17;4.07;;;;;;;;;;759853;183;912995;-69
2021/08/21 02:13:57;;;;;;;7.60;4.40;;;;;;;;;;753881;181;927425;-69
2021/08/21 02:16:23;;;;;;;6.80;4.63;;;;;;;;;;755136;183;916895;-69
2021/08/21 02:18:49;;;;;;;6.20;4.30;;;;;;;;;;755431;183;918966;-69
2021/08/21 02:21:17;;;;;;;7.67;5.27;;;;;;;;;;762573;182;918919;-69
2021/08/21 02:23:41;;;;;;;16.50;5.80;;;;;;;;;;754372;184;919066;-68
2021/08/21 02:26:06;;;;;;;8.77;5.10;;;;;;;;;;754420;183;918896;-69
2021/08/21 02:28:32;;;;;;;9.77;4.97;;;;;;;;;;760005;184;918725;-69
2021/08/21 02:30:58;;;;;;;10.10;4.65;;;;;;;;;;753822;184;921459;-69
2021/08/21 02:33:24;;;;;;;6.47;5.10;;;;;;;;;;754397;184;917138;-68
2021/08/21 02:35:50;;;;;;;5.80;4.10;;;;;;;;;;761565;184;917342;-68
2021/08/21 02:38:16;;;;;;;8.10;4.70;;;;;;;;;;754968;184;918905;-68
2021/08/21 02:40:41;;;;;;;10.40;5.00;;;;;;;;;;757447;184;919458;-69
2021/08/21 02:43:09;;;;;;;8.50;5.07;;;;;;;;;;758870;184;631383;-69
2021/08/21 02:45:33;;;;;;;11.10;4.07;;;;;;;;;;760896;181;917457;-68
2021/08/21 02:47:59;;;;;;;10.97;4.50;;;;;;;;;;757892;184;630329;-68
2021/08/21 02:50:25;;;;;;;8.00;4.13;;;;;;;;;;757214;184;651398;-69
2021/08/21 02:52:51;;;;;;;7.80;4.67;;;;;;;;;;764751;184;614520;-69
2021/08/21 02:55:16;;;;;;;5.40;4.07;;;;;;;;;;759787;183;636210;-69
2021/08/21 02:57:42;;;;;;;10.10;4.60;;;;;;;;;;760104;183;775737;-68
2021/08/21 03:00:08;;;;;;;42.53;7.23;;;;;;;;;;760728;181;918484;-68
2021/08/21 03:02:34;;;;;;;8.20;4.63;;;;;;;;;;756918;183;919784;-68
2021/08/21 03:05:00;;;;;;;6.95;4.32;;;;;;;;;;756079;183;919157;-68
2021/08/21 03:07:26;;;;;;;5.60;4.70;;;;;;;;;;760327;182;916112;-68
2021/08/21 03:09:52;;;;;;;8.00;5.30;;;;;;;;;;758632;184;875100;-68
2021/08/21 03:12:18;;;;;;;8.60;4.10;;;;;;;;;;756676;181;912432;-67
2021/08/21 03:14:43;;;;;;;8.07;5.20;;;;;;;;;;755308;183;915821;-68
2021/08/21 03:17:11;;;;;;;7.30;5.60;;;;;;;;;;765672;183;914477;-68
2021/08/21 03:19:35;;;;;;;9.43;5.40;;;;;;;;;;754757;181;919019;-69
2021/08/21 03:22:01;;;;;;;7.17;5.90;;;;;;;;;;756674;183;919887;-68
2021/08/21 03:24:27;;;;;;;8.47;4.90;;;;;;;;;;761284;181;918322;-68
2021/08/21 03:26:53;;;;;;;12.03;5.00;;;;;;;;;;756917;183;918993;-72
2021/08/21 03:29:19;;;;;;;10.13;4.30;;;;;;;;;;755951;183;919623;-68
2021/08/21 03:31:44;;;;;;;8.70;5.07;;;;;;;;;;759003;184;919430;-67
2021/08/21 03:34:10;;;;;;;14.90;4.67;;;;;;;;;;753580;182;919323;-67
2021/08/21 03:36:36;;;;;;;8.57;4.70;;;;;;;;;;752995;184;918539;-68
2021/08/21 03:39:02;;;;;;;12.63;4.13;;;;;;;;;;754848;184;917677;-68
2021/08/21 03:41:28;;;;;;;6.37;4.47;;;;;;;;;;756022;185;923224;-68
2021/08/21 03:43:54;;;;;;;10.20;5.30;;;;;;;;;;752008;182;978763;-68
2021/08/21 03:46:20;;;;;;;8.83;5.00;;;;;;;;;;754050;184;919115;-68
2021/08/21 03:48:45;;;;;;;28.90;5.50;;;;;;;;;;760858;184;918649;-68
2021/08/21 03:51:11;;;;;;;10.20;5.80;;;;;;;;;;754060;184;921301;-68
2021/08/21 03:53:37;;;;;;;7.17;5.57;;;;;;;;;;756089;184;918651;-67
2021/08/21 03:56:03;;;;;;;10.52;5.53;;;;;;;;;;762969;181;918807;-67
2021/08/21 03:58:29;;;;;;;12.50;4.80;;;;;;;;;;756701;184;918814;-67
2021/08/21 04:00:55;;;;;;;8.53;5.27;;;;;;;;;;755338;181;919450;-67
2021/08/21 04:03:21;;;;;;;7.77;5.20;;;;;;;;;;760107;184;919089;-67
2021/08/21 04:05:46;;;;;;;6.57;5.20;;;;;;;;;;753166;184;923467;-67
2021/08/21 04:08:12;;;;;;;9.00;5.50;;;;;;;;;;755116;184;918926;-67
2021/08/21 04:10:38;;;;;;;11.43;5.43;;;;;;;;;;755366;184;918667;-67
2021/08/21 04:13:04;;;;;;;8.97;4.93;;;;;;;;;;760787;181;919631;-67
2021/08/21 04:15:30;;;;;;;5.67;4.43;;;;;;;;;;756030;182;919749;-67
2021/08/21 04:17:56;;;;;;;9.27;5.00;;;;;;;;;;755723;183;919817;-67
2021/08/21 04:20:21;;;;;;;11.33;4.80;;;;;;;;;;756097;183;1634402;-67
2021/08/21 04:22:47;;;;;;;6.27;4.67;;;;;;;;;;754300;183;918984;-67
2021/08/21 04:25:13;;;;;;;9.50;5.50;;;;;;;;;;755032;183;917695;-67
2021/08/21 04:27:39;;;;;;;9.23;5.33;;;;;;;;;;760567;182;919394;-67
2021/08/21 04:30:05;;;;;;;6.87;4.50;;;;;;;;;;750677;184;964807;-67
2021/08/21 04:32:31;;;;;;;7.50;4.17;;;;;;;;;;754252;183;917970;-67
2021/08/21 04:34:57;;;;;;;6.83;5.03;;;;;;;;;;755709;183;918879;-67
2021/08/21 04:37:23;;;;;;;7.83;5.60;;;;;;;;;;763111;181;917386;-67
2021/08/21 04:39:49;;;;;;;11.73;5.83;;;;;;;;;;756972;183;918035;-67
2021/08/21 04:42:14;;;;;;;8.27;5.80;;;;;;;;;;754076;183;918774;-67
2021/08/21 04:44:40;;;;;;;9.17;6.20;;;;;;;;;;760506;184;914096;-68
2021/08/21 04:47:06;;;;;;;9.03;5.60;;;;;;;;;;757141;184;919490;-69
2021/08/21 04:49:32;;;;;;;8.70;6.37;;;;;;;;;;753309;184;918651;-67
2021/08/21 04:51:59;;;;;;;15.73;7.77;;;;;;;;;;759265;181;906268;-67
2021/08/21 04:54:24;;;;;;;10.30;6.70;;;;;;;;;;755194;184;918504;-67
2021/08/21 04:56:49;;;;;;;9.10;7.30;;;;;;;;;;753780;181;918336;-67
2021/08/21 04:59:15;;;;;;;10.30;7.40;;;;;;;;;;753691;184;918427;-67
2021/08/21 05:01:41;;;;;;;17.93;8.33;;;;;;;;;;754396;184;918760;-68
2021/08/21 05:04:07;;;;;;;13.87;8.57;;;;;;;;;;753086;184;919594;-68
2021/08/21 05:06:33;;;;;;;13.13;8.30;;;;;;;;;;753270;184;918834;-68
2021/08/21 05:08:59;;;;;;;16.23;11.10;;;;;;;;;;758992;184;919659;-67
2021/08/21 05:11:24;;;;;;;17.00;11.70;;;;;;;;;;753706;184;1012789;-68
2021/08/21 05:13:50;;;;;;;19.85;11.88;;;;;;;;;;754523;184;1011868;-68
2021/08/21 05:16:16;;;;;;;41.10;14.10;;;;;;;;;;758983;184;918833;-67
2021/08/21 05:18:47;;;;;;;29.57;13.10;;;;;;;;;;757089;182;918378;-67
2021/08/21 05:21:10;;;;;;;27.40;15.63;;;;;;;;;;755946;180;1020755;-67
2021/08/21 05:23:34;;;;;;;26.37;13.90;;;;;;;;;;760556;184;918635;-67
2021/08/21 05:25:59;;;;;;;29.23;12.63;;;;;;;;;;756151;181;1048165;-67
2021/08/21 05:28:25;;;;;;;35.53;13.43;;;;;;;;;;754794;183;919404;-67
2021/08/21 05:30:51;;;;;;;26.83;11.83;;;;;;;;;;756327;183;919219;-68
2021/08/21 05:33:17;;;;;;;35.37;12.23;;;;;;;;;;760878;181;918210;-69
2021/08/21 05:35:43;;;;;;;37.13;12.17;;;;;;;;;;756525;181;920033;-67
2021/08/21 05:38:09;;;;;;;28.93;11.97;;;;;;;;;;754329;183;920277;-67
2021/08/21 05:40:35;;;;;;;43.90;14.57;;;;;;;;;;761427;183;918221;-67
2021/08/21 05:43:00;;;;;;;48.07;14.40;;;;;;;;;;757456;180;920028;-69
2021/08/21 05:45:26;;;;;;;50.50;14.33;;;;;;;;;;756039;183;919770;-68
2021/08/21 05:47:52;;;;;;;51.87;15.97;;;;;;;;;;758559;183;919697;-68
2021/08/21 05:50:18;;;;;;;37.73;13.80;;;;;;;;;;757636;183;919595;-68
2021/08/21 05:52:44;;;;;;;29.83;15.47;;;;;;;;;;753648;183;919940;-69
2021/08/21 05:55:10;;;;;;;22.40;15.50;;;;;;;;;;752134;181;920971;-67
2021/08/21 05:57:35;;;;;;;21.80;14.47;;;;;;;;;;757019;184;919519;-68
2021/08/21 06:00:01;;;;;;;24.40;15.85;;;;;;;;;;751783;184;919058;-68
2021/08/21 06:02:27;;;;;;;27.80;17.50;;;;;;;;;;752458;183;918673;-68
2021/08/21 06:04:53;;;;;;;21.03;14.80;;;;;;;;;;758219;184;918226;-69
2021/08/21 06:07:19;;;;;;;23.50;16.77;;;;;;;;;;754818;184;918507;-68
2021/08/21 06:09:45;;;;;;;24.97;16.17;;;;;;;;;;755772;184;919483;-71
2021/08/21 06:12:11;;;;;;;26.60;16.50;;;;;;;;;;759354;184;918697;-68
2021/08/21 06:14:38;;;;;;;22.60;16.13;;;;;;;;;;754627;184;918942;-68
2021/08/21 06:17:02;;;;;;;23.37;18.50;;;;;;;;;;755181;183;919591;-68
2021/08/21 06:19:28;;;;;;;21.67;15.80;;;;;;;;;;752906;181;919324;-68
2021/08/21 06:21:54;;;;;;;20.43;15.37;;;;;;;;;;752957;184;923381;-68
2021/08/21 06:24:20;;;;;;;21.17;14.70;;;;;;;;;;753390;184;919546;-68
2021/08/21 06:26:46;;;;;;;32.97;16.70;;;;;;;;;;753635;181;920191;-68
2021/08/21 06:29:11;;;;;;;18.13;13.67;;;;;;;;;;760035;184;918629;-68
2021/08/21 06:31:37;;;;;;;29.30;22.23;;;;;;;;;;756801;183;918628;-68
2021/08/21 06:34:03;;;;;;;16.80;14.17;;;;;;;;;;756812;183;919445;-68
2021/08/21 06:36:29;;;;;;;21.60;17.30;;;;;;;;;;762239;181;918533;-69
2021/08/21 06:38:55;;;;;;;21.87;17.07;;;;;;;;;;755724;184;919323;-70
2021/08/21 06:41:21;;;;;;;17.30;12.20;;;;;;;;;;754123;184;967340;-68
2021/08/21 06:43:47;;;;;;;17.03;12.00;;;;;;;;;;759112;183;918094;-68
2021/08/21 06:46:12;;;;;;;14.50;10.73;;;;;;;;;;754359;183;918973;-67
2021/08/21 06:48:38;;;;;;;18.90;11.00;;;;;;;;;;754239;183;936835;-69
2021/08/21 06:51:04;;;;;;;14.20;10.90;;;;;;;;;;753317;184;919218;-69
2021/08/21 06:53:30;;;;;;;12.60;11.30;;;;;;;;;;760294;184;919365;-68
2021/08/21 06:55:56;;;;;;;23.93;13.07;;;;;;;;;;754758;183;918888;-70
2021/08/21 06:58:22;;;;;;;15.03;12.80;;;;;;;;;;754546;182;919633;-68
2021/08/21 07:00:49;;;;;;;13.13;10.93;;;;;;;;;;759996;183;918630;-70
2021/08/21 07:03:13;;;;;;;17.60;9.20;;;;;;;;;;758167;181;918247;-69
2021/08/21 07:05:39;;;;;;;14.10;9.93;;;;;;;;;;754096;184;918825;-69
2021/08/21 07:08:05;;;;;;;9.67;8.47;;;;;;;;;;760403;184;917988;-69
2021/08/21 07:10:31;;;;;;;10.90;8.20;;;;;;;;;;752849;184;918595;-68
2021/08/21 07:12:57;;;;;;;8.73;7.80;;;;;;;;;;753207;184;919054;-70
2021/08/21 07:15:22;;;;;;;11.47;7.70;;;;;;;;;;753987;184;919053;-69
2021/08/21 07:17:48;;;;;;;12.33;8.77;;;;;;;;;;763886;183;919286;-70
2021/08/21 07:20:14;;;;;;;10.73;8.43;;;;;;;;;;753717;184;918495;-71
2021/08/21 07:22:40;;;;;;;10.17;7.70;;;;;;;;;;755544;184;926930;-69
2021/08/21 07:25:06;;;;;;;14.17;9.40;;;;;;;;;;761214;184;917171;-71
2021/08/21 07:27:32;;;;;;;9.13;7.60;;;;;;;;;;753302;184;919498;-71
2021/08/21 07:29:58;;;;;;;12.53;7.83;;;;;;;;;;754406;184;928115;-70
2021/08/21 07:32:24;;;;;;;11.03;8.23;;;;;;;;;;758703;185;918456;-69
2021/08/21 07:34:49;;;;;;;9.60;7.93;;;;;;;;;;754774;184;919272;-70
2021/08/21 07:37:15;;;;;;;11.05;8.35;;;;;;;;;;755363;184;919383;-71
2021/08/21 07:39:41;;;;;;;10.00;8.10;;;;;;;;;;758793;184;918243;-71
2021/08/21 07:42:07;;;;;;;14.13;7.73;;;;;;;;;;750468;183;925756;-71
2021/08/21 07:44:33;;;;;;;10.97;8.40;;;;;;;;;;758838;183;917995;-71
2021/08/21 07:46:59;;;;;;;8.60;7.67;;;;;;;;;;758703;183;633236;-70
2021/08/21 07:49:24;;;;;;;8.80;7.67;;;;;;;;;;765123;183;886562;-71
2021/08/21 07:51:50;;;;;;;8.77;7.33;;;;;;;;;;760761;183;633014;-72
2021/08/21 07:54:16;;;;;;;11.03;8.10;;;;;;;;;;756209;184;923160;-71
2021/08/21 07:56:42;;;;;;;14.00;8.50;;;;;;;;;;759508;183;919074;-72
2021/08/21 07:59:09;;;;;;;11.70;8.00;;;;;;;;;;757681;184;919241;-71
2021/08/21 08:01:35;;;;;;;13.13;8.33;;;;;;;;;;755354;183;919007;-70
2021/08/21 08:04:01;;;;;;;9.40;7.10;;;;;;;;;;761333;183;918897;-71
2021/08/21 08:06:27;;;;;;;9.30;7.40;;;;;;;;;;754090;184;918071;-70
2021/08/21 08:08:52;;;;;;;11.50;9.13;;;;;;;;;;754094;183;919219;-71
2021/08/21 08:11:18;;;;;;;8.80;7.40;;;;;;;;;;754937;183;919201;-72
2021/08/21 08:13:44;;;;;;;10.83;7.67;;;;;;;;;;758973;183;918741;-71
2021/08/21 08:16:10;;;;;;;15.20;8.25;;;;;;;;;;754981;183;924213;-72
2021/08/21 08:18:36;;;;;;;10.13;7.43;;;;;;;;;;753801;184;920990;-72
2021/08/21 08:21:02;;;;;;;18.03;11.13;;;;;;;;;;759429;184;918371;-71
2021/08/21 08:23:27;;;;;;;10.30;7.93;;;;;;;;;;753102;184;1328486;-69
2021/08/21 08:25:53;;;;;;;10.30;7.93;;;;;;;;;;756006;184;919064;-71
2021/08/21 08:28:19;;;;;;;7.63;6.00;;;;;;;;;;758579;185;918378;-70
2021/08/21 08:30:45;;;;;;;9.97;7.03;;;;;;;;;;753480;184;918676;-68
2021/08/21 08:33:11;;;;;;;9.20;7.60;;;;;;;;;;752889;181;919666;-70
2021/08/21 08:35:37;;;;;;;10.93;6.37;;;;;;;;;;756949;183;918727;-70
2021/08/21 08:38:02;;;;;;;10.67;7.27;;;;;;;;;;762695;182;919087;-72
2021/08/21 08:40:28;;;;;;;8.20;6.67;;;;;;;;;;753765;184;921828;-71
2021/08/21 08:42:54;;;;;;;8.37;6.60;;;;;;;;;;754392;182;918052;-70
2021/08/21 08:45:20;;;;;;;7.77;6.00;;;;;;;;;;760409;181;921033;-70
2021/08/21 08:47:46;;;;;;;9.83;7.27;;;;;;;;;;754879;184;918405;-71
2021/08/21 08:50:12;;;;;;;7.97;6.53;;;;;;;;;;755656;184;915770;-70
2021/08/21 08:52:39;;;;;;;8.23;6.57;;;;;;;;;;759218;184;913032;-70
2021/08/21 08:55:04;;;;;;;8.83;5.93;;;;;;;;;;756604;183;914304;-71
2021/08/21 08:57:34;;;;;;;9.03;6.03;;;;;;;;;;755700;183;916526;-72
2021/08/21 09:00:00;;;;;;;9.73;6.30;;;;;;;;;;754854;183;914350;-71
2021/08/21 09:02:33;;;;;;;12.60;5.93;;;;;;;;;;759688;183;913782;-71
2021/08/21 09:05:00;;;;;;;7.63;5.07;;;;;;;;;;753397;183;924422;-72
2021/08/21 09:07:25;;;;;;;11.07;7.53;;;;;;;;;;755905;183;918475;-72
2021/08/21 09:09:52;;;;;;;6.95;5.28;;;;;;;;;;756876;183;937320;-70
2021/08/21 09:12:21;;;;;;;8.47;6.33;;;;;;;;;;758949;184;918811;-71
2021/08/21 09:14:47;;;;;;;9.03;6.57;;;;;;;;;;753266;182;919990;-73
2021/08/21 09:17:14;;;;;;;8.50;6.43;;;;;;;;;;754487;184;920872;-74
2021/08/21 09:19:39;;;;;;;7.50;5.77;;;;;;;;;;759829;183;920030;-74
2021/08/21 09:22:06;;;;;;;8.80;6.37;;;;;;;;;;751268;184;1738666;-73
2021/08/21 09:24:32;;;;;;;9.40;5.65;;;;;;;;;;755084;184;920818;-73
2021/08/21 09:27:04;;;;;;;7.20;5.77;;;;;;;;;;758296;183;918578;-71
2021/08/21 09:29:30;;;;;;;8.30;5.20;;;;;;;;;;755235;181;908059;-73
2021/08/21 09:32:02;;;;;;;8.57;5.50;;;;;;;;;;754579;184;920410;-72
2021/08/21 09:34:27;;;;;;;6.53;4.80;;;;;;;;;;754154;184;981568;-73
2021/08/21 09:36:53;;;;;;;6.63;5.10;;;;;;;;;;758272;181;918516;-74
2021/08/21 09:39:19;;;;;;;9.27;6.13;;;;;;;;;;752525;184;1435257;-75
2021/08/21 09:41:51;;;;;;;7.60;5.73;;;;;;;;;;748405;185;924041;-72
2021/08/21 09:44:17;;;;;;;6.30;4.93;;;;;;;;;;752773;182;918607;-72
2021/08/21 09:46:43;;;;;;;7.60;5.30;;;;;;;;;;760195;184;822659;-75
2021/08/21 09:49:10;;;;;;;6.83;5.20;;;;;;;;;;754961;184;921304;-73
2021/08/21 09:51:39;;;;;;;5.70;4.83;;;;;;;;;;756697;183;917327;-73
2021/08/21 09:54:05;;;;;;;455.47;276.60;;;;;;;;;;754080;184;920696;-73
2021/08/21 09:56:32;;;;;;;19.30;14.00;;;;;;;;;;758914;184;916893;-74
2021/08/21 09:58:58;;;;;;;9.87;5.17;;;;;;;;;;755004;181;918060;-73
2021/08/21 10:01:24;;;;;;;7.10;5.07;;;;;;;;;;755019;181;915104;-73
2021/08/21 10:03:50;;;;;;;77.27;41.70;;;;;;;;;;758819;184;919542;-72
2021/08/21 10:06:15;;;;;;;6.28;4.50;;;;;;;;;;757576;180;912265;-73
2021/08/21 10:08:41;;;;;;;6.03;4.60;;;;;;;;;;756097;183;911234;-72
2021/08/21 10:11:07;;;;;;;5.17;4.33;;;;;;;;;;761074;181;909094;-73
2021/08/21 10:13:33;;;;;;;7.03;4.70;;;;;;;;;;758067;183;908136;-72
2021/08/21 10:16:03;;;;;;;5.53;4.30;;;;;;;;;;755736;183;934587;-72
2021/08/21 10:18:25;;;;;;;8.23;4.80;;;;;;;;;;754738;183;919443;-71
2021/08/21 10:20:50;;;;;;;4.40;3.90;;;;;;;;;;758330;183;939409;-73
2021/08/21 10:23:16;;;;;;;6.00;4.13;;;;;;;;;;754326;183;919437;-72
2021/08/21 10:25:43;;;;;;;5.93;3.67;;;;;;;;;;753845;183;919566;-72
2021/08/21 10:28:09;;;;;;;5.37;4.87;;;;;;;;;;760024;183;918884;-74
2021/08/21 10:30:38;;;;;;;5.30;4.10;;;;;;;;;;756598;183;919424;-70
2021/08/21 10:33:04;;;;;;;5.90;4.17;;;;;;;;;;756895;183;918563;-73
2021/08/21 10:35:49;;;;;;;5.75;3.70;;;;;;;;;;759041;181;918838;-71
2021/08/21 10:38:21;;;;;;;6.60;4.70;;;;;;;;;;749428;185;919421;-73
2021/08/21 10:40:47;;;;;;;7.50;4.90;;;;;;;;;;761011;183;918612;-73
2021/08/21 10:43:12;;;;;;;5.60;4.70;;;;;;;;;;754187;185;919214;-72
2021/08/21 10:45:47;;;;;;;5.90;4.20;;;;;;;;;;754799;184;919403;-72
2021/08/21 10:48:13;;;;;;;5.73;4.37;;;;;;;;;;753428;184;918698;-70
2021/08/21 10:50:44;;;;;;;7.12;4.22;;;;;;;;;;759109;184;918443;-73
2021/08/21 10:53:10;;;;;;;6.57;4.80;;;;;;;;;;753863;184;920070;-74
2021/08/21 10:55:36;;;;;;;5.17;4.37;;;;;;;;;;753607;184;919479;-73
2021/08/21 10:58:04;;;;;;;6.37;4.35;;;;;;;;;;758121;184;1025420;-72
2021/08/21 11:00:36;;;;;;;6.43;4.43;;;;;;;;;;752614;184;917759;-74
2021/08/21 11:03:02;;;;;;;7.17;3.83;;;;;;;;;;755307;184;918777;-72
2021/08/21 11:05:33;;;;;;;7.75;4.78;;;;;;;;;;753355;183;919181;-73
2021/08/21 11:08:03;;;;;;;4.67;4.00;;;;;;;;;;753089;181;922476;-72
2021/08/21 11:10:30;;;;;;;5.17;3.40;;;;;;;;;;760646;183;917892;-71
2021/08/21 11:12:55;;;;;;;6.40;4.23;;;;;;;;;;753968;184;918729;-74
2021/08/21 11:15:21;;;;;;;4.47;3.87;;;;;;;;;;754940;184;918126;-73
2021/08/21 11:17:46;;;;;;;4.37;3.50;;;;;;;;;;760705;183;917643;-73
2021/08/21 11:20:18;;;;;;;10.45;3.83;;;;;;;;;;757166;183;919082;-73
2021/08/21 11:22:44;;;;;;;7.40;4.50;;;;;;;;;;757553;181;918953;-73
2021/08/21 11:25:10;;;;;;;5.80;4.20;;;;;;;;;;755662;183;918034;-75
2021/08/21 11:27:36;;;;;;;20.40;4.47;;;;;;;;;;759800;183;917999;-72
2021/08/21 11:30:20;;;;;;;15.43;4.60;;;;;;;;;;754445;183;928858;-72
2021/08/21 11:32:45;;;;;;;5.80;4.30;;;;;;;;;;757344;184;918513;-71
2021/08/21 11:35:15;;;;;;;5.83;4.30;;;;;;;;;;756476;183;918568;-73
2021/08/21 11:37:41;;;;;;;9.33;3.80;;;;;;;;;;761109;182;816195;-70
2021/08/21 11:40:08;;;;;;;4.53;3.50;;;;;;;;;;755313;181;919352;-72
2021/08/21 11:42:39;;;;;;;5.23;4.20;;;;;;;;;;752458;183;917721;-71
2021/08/21 11:45:06;;;;;;;5.40;4.70;;;;;;;;;;753570;184;919033;-74
2021/08/21 11:47:32;;;;;;;9.43;4.70;;;;;;;;;;759438;183;918358;-75
2021/08/21 11:49:58;;;;;;;6.23;4.03;;;;;;;;;;756538;183;917808;-74
2021/08/21 11:52:24;;;;;;;4.80;3.50;;;;;;;;;;754361;184;919523;-73
2021/08/21 11:54:52;;;;;;;6.90;5.00;;;;;;;;;;759016;184;919466;-72
2021/08/21 11:57:16;;;;;;;5.30;3.90;;;;;;;;;;750365;184;920301;-71
2021/08/21 11:59:42;;;;;;;4.60;3.50;;;;;;;;;;753550;184;918342;-70
2021/08/21 12:02:10;;;;;;;5.55;4.07;;;;;;;;;;754997;184;919864;-71
2021/08/21 12:04:34;;;;;;;5.17;3.60;;;;;;;;;;760144;184;919280;-71
2021/08/21 12:07:00;;;;;;;5.30;4.03;;;;;;;;;;754488;184;919215;-72
2021/08/21 12:09:26;;;;;;;8.60;4.63;;;;;;;;;;754898;184;919526;-73
2021/08/21 12:11:51;;;;;;;5.47;3.80;;;;;;;;;;759644;184;918945;-71
2021/08/21 12:14:17;;;;;;;9.00;3.97;;;;;;;;;;753676;182;921682;-72
2021/08/21 12:16:43;;;;;;;5.83;4.40;;;;;;;;;;756414;184;919011;-72
2021/08/21 12:19:09;;;;;;;4.83;3.83;;;;;;;;;;758617;184;918098;-73
2021/08/21 12:21:35;;;;;;;8.87;4.60;;;;;;;;;;753854;184;918197;-72
2021/08/21 12:24:01;;;;;;;4.53;3.80;;;;;;;;;;754381;181;919196;-73
2021/08/21 12:26:29;;;;;;;6.10;3.80;;;;;;;;;;754746;184;919371;-72
2021/08/21 12:28:55;;;;;;;6.70;4.17;;;;;;;;;;761836;181;920151;-72
2021/08/21 12:31:23;;;;;;;4.80;3.70;;;;;;;;;;756237;184;924075;-74
2021/08/21 12:33:47;;;;;;;9.20;4.03;;;;;;;;;;754841;183;919305;-71
2021/08/21 12:36:14;;;;;;;7.80;4.77;;;;;;;;;;758655;182;1028145;-71
2021/08/21 12:38:40;;;;;;;4.83;3.87;;;;;;;;;;754552;183;919787;-73
2021/08/21 12:41:06;;;;;;;4.80;3.83;;;;;;;;;;755451;181;919149;-73
2021/08/21 12:43:32;;;;;;;7.03;3.60;;;;;;;;;;754227;184;916559;-73
2021/08/21 12:45:58;;;;;;;9.50;4.40;;;;;;;;;;754696;184;919664;-73
2021/08/21 12:48:24;;;;;;;6.03;4.00;;;;;;;;;;753202;181;918119;-73
2021/08/21 12:50:49;;;;;;;7.00;4.50;;;;;;;;;;754686;181;918743;-70
2021/08/21 12:53:15;;;;;;;5.43;4.10;;;;;;;;;;759725;183;919480;-74
2021/08/21 12:55:41;;;;;;;7.87;3.80;;;;;;;;;;754314;184;919320;-74
2021/08/21 12:58:07;;;;;;;14.20;5.55;;;;;;;;;;756639;183;920054;-73
2021/08/21 13:00:33;;;;;;;6.20;4.67;;;;;;;;;;759716;183;917768;-73
2021/08/21 13:02:59;;;;;;;9.47;5.57;;;;;;;;;;755487;183;918685;-72
2021/08/21 13:05:29;;;;;;;6.50;4.33;;;;;;;;;;756701;184;850758;-73
2021/08/21 13:07:54;;;;;;;5.80;4.57;;;;;;;;;;757144;184;919589;-74
2021/08/21 13:10:20;;;;;;;4.50;3.70;;;;;;;;;;762224;181;1020951;-73
2021/08/21 13:12:45;;;;;;;5.47;4.50;;;;;;;;;;752904;184;1173512;-75
2021/08/21 13:15:12;;;;;;;5.35;4.30;;;;;;;;;;754316;184;919272;-73
2021/08/21 13:17:37;;;;;;;4.97;3.60;;;;;;;;;;760734;184;918419;-76
2021/08/21 13:20:04;;;;;;;13.83;4.20;;;;;;;;;;754603;184;941551;-75
2021/08/21 13:22:30;;;;;;;7.00;3.60;;;;;;;;;;754807;184;918491;-70
2021/08/21 13:24:55;;;;;;;5.80;3.50;;;;;;;;;;758347;184;918931;-74
2021/08/21 13:27:21;;;;;;;4.97;4.03;;;;;;;;;;754669;184;917616;-74
2021/08/21 13:29:47;;;;;;;5.93;3.60;;;;;;;;;;755381;184;918896;-74
2021/08/21 13:32:13;;;;;;;5.53;4.07;;;;;;;;;;754188;184;918613;-72
2021/08/21 13:34:39;;;;;;;7.70;3.95;;;;;;;;;;760961;183;919533;-75
2021/08/21 13:37:05;;;;;;;4.60;3.70;;;;;;;;;;756907;182;872943;-75
2021/08/21 13:39:31;;;;;;;8.50;4.20;;;;;;;;;;753136;184;918924;-72
2021/08/21 13:41:57;;;;;;;5.10;3.80;;;;;;;;;;762185;183;918798;-73
2021/08/21 13:44:23;;;;;;;4.87;3.53;;;;;;;;;;756663;183;936243;-73
2021/08/21 13:46:49;;;;;;;5.10;3.87;;;;;;;;;;756310;183;917952;-74
2021/08/21 13:49:15;;;;;;;4.57;3.80;;;;;;;;;;760719;183;918747;-74
2021/08/21 13:51:40;;;;;;;6.37;3.60;;;;;;;;;;756564;184;918326;-73
2021/08/21 13:54:06;;;;;;;6.13;3.90;;;;;;;;;;756150;183;919003;-75
2021/08/21 13:56:33;;;;;;;5.07;3.60;;;;;;;;;;758485;184;918950;-71
2021/08/21 13:58:59;;;;;;;8.80;3.90;;;;;;;;;;761642;183;919291;-73
2021/08/21 14:01:25;;;;;;;5.20;3.03;;;;;;;;;;756397;183;918470;-72
2021/08/21 14:03:50;;;;;;;4.43;3.37;;;;;;;;;;753312;184;918734;-72
2021/08/21 14:06:16;;;;;;;5.50;3.90;;;;;;;;;;758726;183;918846;-71
2021/08/21 14:08:42;;;;;;;5.23;3.40;;;;;;;;;;755597;183;918618;-73
2021/08/21 14:11:08;;;;;;;7.50;3.80;;;;;;;;;;754730;181;918956;-72
2021/08/21 14:13:34;;;;;;;4.83;3.10;;;;;;;;;;759501;184;919507;-73
2021/08/21 14:16:00;;;;;;;10.37;3.80;;;;;;;;;;755159;184;928880;-72